createdAt,value
2023-05-20T00:02:14.223Z,12.40
2023-05-20T00:04:42.127Z,12.30
2023-05-20T00:07:09.454Z,12.30
2023-05-20T00:09:38.121Z,12.20
2023-05-20T00:12:05.434Z,12.50
2023-05-20T00:14:32.282Z,12.30
2023-05-20T00:16:59.159Z,12.20
2023-05-20T00:19:26.071Z,12.20
2023-05-20T00:21:53.002Z,12.60
2023-05-20T00:24:19.896Z,12.20
2023-05-20T00:26:46.715Z,13.10
2023-05-20T00:29:13.528Z,12.40
2023-05-20T00:31:40.438Z,12.40
2023-05-20T00:34:07.352Z,12.10
2023-05-20T00:36:35.490Z,12.10
2023-05-20T00:39:02.328Z,13.00
2023-05-20T00:41:29.202Z,12.00
2023-05-20T00:43:56.918Z,12.10
2023-05-20T00:46:28.324Z,12.10
2023-05-20T00:48:55.588Z,12.10
2023-05-20T00:51:22.682Z,12.00
2023-05-20T00:53:49.989Z,12.10
2023-05-20T00:56:17.690Z,13.00
2023-05-20T00:58:44.806Z,11.80
2023-05-20T01:01:11.777Z,11.90
2023-05-20T01:03:39.022Z,11.90
2023-05-20T01:06:06.230Z,12.10
2023-05-20T01:08:34.279Z,11.90
2023-05-20T01:11:08.745Z,12.10
2023-05-20T01:13:43.296Z,12.10
2023-05-20T01:16:11.782Z,12.10
2023-05-20T01:18:41.068Z,12.10
2023-05-20T01:21:12.164Z,12.20
2023-05-20T01:23:40.619Z,12.30
2023-05-20T01:26:10.246Z,12.30
2023-05-20T01:28:38.782Z,12.20
2023-05-20T01:31:14.630Z,11.90
2023-05-20T01:33:43.050Z,11.90
2023-05-20T01:36:11.053Z,11.70
2023-05-20T01:38:39.292Z,12.10
2023-05-20T01:41:07.463Z,12.80
2023-05-20T01:43:35.083Z,11.90
2023-05-20T01:46:02.943Z,12.50
2023-05-20T01:48:29.940Z,11.90
2023-05-20T01:50:57.142Z,12.00
2023-05-20T01:53:24.037Z,12.00
2023-05-20T01:55:50.990Z,11.90
2023-05-20T01:58:17.888Z,11.80
2023-05-20T02:00:44.900Z,11.90
2023-05-20T02:03:11.850Z,11.70
2023-05-20T02:05:39.323Z,11.50
2023-05-20T02:08:06.486Z,11.80
2023-05-20T02:10:33.464Z,11.60
2023-05-20T02:13:00.511Z,11.60
2023-05-20T02:15:27.606Z,11.80
2023-05-20T02:17:55.208Z,11.70
2023-05-20T02:20:23.537Z,11.50
2023-05-20T02:22:50.546Z,11.70
2023-05-20T02:25:17.489Z,11.60
2023-05-20T02:27:44.353Z,12.00
2023-05-20T02:30:11.599Z,11.70
2023-05-20T02:32:38.563Z,11.60
2023-05-20T02:35:05.899Z,11.60
2023-05-20T02:37:32.935Z,11.60
2023-05-20T02:39:59.827Z,11.70
2023-05-20T02:42:26.724Z,11.60
2023-05-20T02:44:56.594Z,11.60
2023-05-20T02:47:23.689Z,11.60
2023-05-20T02:49:50.638Z,11.70
2023-05-20T02:52:17.529Z,11.50
2023-05-20T02:54:44.412Z,11.40
2023-05-20T02:57:11.343Z,11.90
2023-05-20T02:59:38.439Z,11.50
2023-05-20T03:02:05.461Z,11.50
2023-05-20T03:04:32.408Z,11.50
2023-05-20T03:06:59.348Z,11.70
2023-05-20T03:09:26.319Z,11.40
2023-05-20T03:11:53.280Z,11.50
2023-05-20T03:14:20.297Z,11.40
2023-05-20T03:16:47.159Z,11.20
2023-05-20T03:19:14.105Z,11.10
2023-05-20T03:21:41.285Z,11.10
2023-05-20T03:24:08.767Z,11.20
2023-05-20T03:26:37.693Z,11.40
2023-05-20T03:29:05.774Z,11.20
2023-05-20T03:31:32.964Z,11.30
2023-05-20T03:33:59.901Z,11.60
2023-05-20T03:36:26.954Z,11.40
2023-05-20T03:38:54.076Z,11.50
2023-05-20T03:41:21.157Z,11.40
2023-05-20T03:43:48.209Z,11.70
2023-05-20T03:46:16.322Z,11.70
2023-05-20T03:48:43.206Z,12.60
2023-05-20T03:51:10.175Z,11.80
2023-05-20T03:53:37.320Z,11.50
2023-05-20T03:56:04.451Z,11.80
2023-05-20T03:58:31.462Z,11.50
2023-05-20T04:00:58.583Z,12.20
2023-05-20T04:03:26.102Z,11.40
2023-05-20T04:05:53.434Z,11.40
2023-05-20T04:08:22.136Z,11.30
2023-05-20T04:10:49.446Z,11.30
2023-05-20T04:13:16.469Z,11.40
2023-05-20T04:15:43.503Z,11.30
2023-05-20T04:18:13.193Z,11.60
2023-05-20T04:20:43.824Z,11.20
2023-05-20T04:23:12.823Z,11.30
2023-05-20T04:25:42.213Z,11.40
2023-05-20T04:28:10.777Z,11.20
2023-05-20T04:30:37.763Z,11.40
2023-05-20T04:33:04.747Z,11.10
2023-05-20T04:35:33.998Z,11.10
2023-05-20T04:38:04.579Z,11.50
2023-05-20T04:40:32.500Z,11.50
2023-05-20T04:43:04.001Z,11.40
2023-05-20T04:45:31.560Z,11.40
2023-05-20T04:47:58.715Z,11.50
2023-05-20T04:50:25.642Z,11.40
2023-05-20T04:52:52.877Z,11.50
2023-05-20T04:55:21.618Z,11.30
2023-05-20T04:57:49.273Z,11.10
2023-05-20T05:00:16.392Z,11.30
2023-05-20T05:02:43.384Z,11.30
2023-05-20T05:05:10.870Z,11.20
2023-05-20T05:07:38.793Z,11.10
2023-05-20T05:10:06.647Z,11.20
2023-05-20T05:12:33.567Z,11.10
2023-05-20T05:15:00.925Z,11.20
2023-05-20T05:17:28.824Z,11.20
2023-05-20T05:19:57.087Z,11.20
2023-05-20T05:22:24.631Z,11.10
2023-05-20T05:24:52.386Z,11.30
2023-05-20T05:27:19.310Z,11.10
2023-05-20T05:29:46.620Z,11.10
2023-05-20T05:32:13.538Z,11.20
2023-05-20T05:34:40.944Z,11.00
2023-05-20T05:37:07.905Z,11.20
2023-05-20T05:39:37.706Z,11.20
2023-05-20T05:42:05.332Z,10.90
2023-05-20T05:44:32.838Z,10.90
2023-05-20T05:47:00.454Z,11.20
2023-05-20T05:49:27.692Z,11.40
2023-05-20T05:51:54.942Z,11.60
2023-05-20T05:54:21.980Z,11.20
2023-05-20T05:56:52.123Z,11.50
2023-05-20T05:59:19.880Z,11.80
2023-05-20T06:01:46.970Z,11.30
2023-05-20T06:04:15.050Z,11.50
2023-05-20T06:06:42.142Z,11.60
2023-05-20T06:09:09.077Z,11.40
2023-05-20T06:11:36.572Z,11.50
2023-05-20T06:14:03.717Z,11.70
2023-05-20T06:16:31.231Z,11.60
2023-05-20T06:19:01.795Z,11.80
2023-05-20T06:21:32.684Z,11.70
2023-05-20T06:23:59.814Z,11.70
2023-05-20T06:26:27.802Z,12.00
2023-05-20T06:28:55.501Z,12.00
2023-05-20T06:31:22.805Z,12.10
2023-05-20T06:33:51.575Z,12.00
2023-05-20T06:36:18.495Z,12.30
2023-05-20T06:38:45.601Z,11.90
2023-05-20T06:41:14.741Z,12.00
2023-05-20T06:43:41.734Z,12.00
2023-05-20T06:46:31.197Z,12.10
2023-05-20T06:49:05.400Z,12.20
2023-05-20T06:51:32.403Z,12.20
2023-05-20T06:54:00.557Z,12.30
2023-05-20T06:56:27.561Z,12.30
2023-05-20T06:58:55.552Z,12.40
2023-05-20T07:01:22.713Z,12.60
2023-05-20T07:03:49.958Z,12.60
2023-05-20T07:06:17.259Z,13.10
2023-05-20T07:08:44.455Z,12.70
2023-05-20T07:11:11.916Z,12.70
2023-05-20T07:13:39.042Z,12.90
2023-05-20T07:16:06.850Z,12.90
2023-05-20T07:18:36.465Z,12.70
2023-05-20T07:21:03.429Z,12.90
2023-05-20T07:23:59.651Z,12.90
2023-05-20T07:26:26.632Z,13.00
2023-05-20T07:28:53.660Z,13.00
2023-05-20T07:31:20.594Z,13.00
2023-05-20T07:33:48.504Z,13.10
2023-05-20T07:36:15.694Z,13.10
2023-05-20T07:38:57.073Z,13.10
2023-05-20T07:41:30.865Z,13.30
2023-05-20T07:43:58.116Z,13.30
2023-05-20T07:46:25.432Z,13.30
2023-05-20T07:48:52.692Z,13.30
2023-05-20T07:51:19.677Z,13.30
2023-05-20T07:53:46.615Z,13.40
2023-05-20T07:56:13.838Z,13.40
2023-05-20T07:58:52.412Z,13.70
2023-05-20T08:01:20.221Z,13.40
2023-05-20T08:03:47.397Z,13.30
2023-05-20T08:06:18.396Z,13.60
2023-05-20T08:08:46.393Z,13.50
2023-05-20T08:11:19.384Z,13.80
2023-05-20T08:13:46.800Z,13.60
2023-05-20T08:16:15.104Z,13.60
2023-05-20T08:18:44.646Z,13.70
2023-05-20T08:21:14.014Z,13.70
2023-05-20T08:23:40.918Z,13.80
2023-05-20T08:26:08.203Z,14.10
2023-05-20T08:28:38.333Z,13.90
2023-05-20T08:31:05.737Z,13.90
2023-05-20T08:33:33.422Z,14.00
2023-05-20T08:36:00.861Z,14.10
2023-05-20T08:38:30.078Z,14.10
2023-05-20T08:40:57.679Z,14.20
2023-05-20T08:43:26.094Z,14.10
2023-05-20T08:45:53.339Z,14.30
2023-05-20T08:48:23.642Z,14.50
2023-05-20T08:50:51.978Z,14.70
2023-05-20T08:53:21.204Z,14.70
2023-05-20T08:55:55.229Z,14.60
2023-05-20T08:58:23.435Z,14.50
2023-05-20T09:00:53.022Z,14.90
2023-05-20T09:03:23.989Z,14.90
2023-05-20T09:05:51.194Z,15.10
2023-05-20T09:08:18.017Z,15.30
2023-05-20T09:10:44.960Z,15.00
2023-05-20T09:13:11.847Z,15.00
2023-05-20T09:15:39.377Z,14.90
2023-05-20T09:18:08.201Z,15.10
2023-05-20T09:20:41.130Z,15.20
2023-05-20T09:23:10.188Z,15.20
2023-05-20T09:25:38.056Z,15.30
2023-05-20T09:28:07.682Z,15.50
2023-05-20T09:30:34.916Z,15.70
2023-05-20T09:33:05.220Z,15.80
2023-05-20T09:35:37.662Z,16.00
2023-05-20T09:38:07.706Z,16.00
2023-05-20T09:40:37.896Z,15.90
2023-05-20T09:43:07.901Z,16.00
2023-05-20T09:45:35.211Z,15.90
2023-05-20T09:48:03.905Z,16.00
2023-05-20T09:50:32.104Z,16.00
2023-05-20T09:53:03.359Z,16.00
2023-05-20T09:55:31.067Z,16.50
2023-05-20T09:58:01.916Z,16.70
2023-05-20T10:00:28.948Z,16.70
2023-05-20T10:02:57.440Z,16.70
2023-05-20T10:05:38.654Z,17.00
2023-05-20T10:08:36.763Z,16.80
2023-05-20T10:11:34.229Z,16.70
2023-05-20T10:14:34.159Z,16.60
2023-05-20T10:17:17.392Z,16.70
2023-05-20T10:19:44.994Z,16.80
2023-05-20T10:22:12.114Z,16.90
2023-05-20T10:24:41.715Z,16.90
2023-05-20T10:27:11.187Z,16.90
2023-05-20T10:29:55.331Z,16.80
2023-05-20T10:32:35.923Z,16.80
2023-05-20T10:35:10.129Z,16.80
2023-05-20T10:37:45.382Z,17.00
2023-05-20T10:40:14.401Z,17.20
2023-05-20T10:42:42.828Z,17.20
2023-05-20T10:45:10.594Z,17.30
2023-05-20T10:47:42.124Z,17.30
2023-05-20T10:50:26.539Z,17.30
2023-05-20T10:52:53.687Z,17.40
2023-05-20T10:55:22.610Z,17.30
2023-05-20T10:57:49.526Z,17.30
2023-05-20T11:00:16.733Z,17.50
2023-05-20T11:02:44.696Z,17.70
2023-05-20T11:05:12.952Z,17.80
2023-05-20T11:07:39.897Z,17.50
2023-05-20T11:10:10.023Z,17.50
2023-05-20T11:12:37.052Z,17.50
2023-05-20T11:15:04.229Z,17.50
2023-05-20T11:17:31.704Z,17.50
2023-05-20T11:20:01.000Z,17.50
2023-05-20T11:22:28.081Z,17.60
2023-05-20T11:24:54.928Z,17.90
2023-05-20T11:27:22.410Z,17.80
2023-05-20T11:29:51.007Z,17.80
2023-05-20T11:32:20.241Z,17.90
2023-05-20T11:34:52.870Z,17.90
2023-05-20T11:37:20.366Z,17.90
2023-05-20T11:39:47.209Z,18.20
2023-05-20T11:42:16.354Z,18.20
2023-05-20T11:44:46.487Z,18.20
2023-05-20T11:47:13.419Z,18.30
2023-05-20T11:49:41.026Z,18.40
2023-05-20T11:52:11.100Z,18.30
2023-05-20T11:54:38.287Z,18.30
2023-05-20T11:57:07.107Z,18.30
2023-05-20T11:59:34.538Z,18.30
2023-05-20T12:02:01.393Z,18.40
2023-05-20T12:04:28.218Z,18.40
2023-05-20T12:06:55.878Z,18.30
2023-05-20T12:09:23.607Z,18.40
2023-05-20T12:11:50.918Z,18.30
2023-05-20T12:14:17.784Z,18.30
2023-05-20T12:16:44.684Z,18.30
2023-05-20T12:19:11.682Z,18.30
2023-05-20T12:21:38.692Z,18.30
2023-05-20T12:24:07.132Z,18.30
2023-05-20T12:26:35.433Z,18.40
2023-05-20T12:29:02.423Z,18.30
2023-05-20T12:31:29.690Z,18.30
2023-05-20T12:33:57.836Z,18.40
2023-05-20T12:36:24.953Z,18.30
2023-05-20T12:38:51.820Z,18.30
2023-05-20T12:41:18.785Z,18.20
2023-05-20T12:43:45.608Z,18.30
2023-05-20T12:46:12.799Z,18.30
2023-05-20T12:48:41.746Z,18.30
2023-05-20T12:51:09.464Z,18.30
2023-05-20T12:53:36.473Z,18.20
2023-05-20T12:56:04.595Z,18.30
2023-05-20T12:58:32.484Z,18.30
2023-05-20T13:00:59.352Z,18.40
2023-05-20T13:03:26.552Z,18.70
2023-05-20T13:05:53.536Z,18.70
2023-05-20T13:08:20.581Z,18.80
2023-05-20T13:13:55.853Z,19.20
2023-05-20T13:16:23.322Z,19.30
2023-05-20T13:18:50.595Z,19.40
2023-05-20T13:21:17.919Z,19.40
2023-05-20T13:23:45.061Z,19.50
2023-05-20T13:26:12.025Z,19.50
2023-05-20T13:28:38.912Z,19.60
2023-05-20T13:31:09.161Z,19.70
2023-05-20T13:33:36.118Z,19.90
2023-05-20T13:36:03.176Z,19.70
2023-05-20T13:38:30.245Z,19.70
2023-05-20T13:40:59.312Z,19.60
2023-05-20T13:43:29.476Z,19.60
2023-05-20T13:45:56.494Z,19.40
2023-05-20T13:48:23.471Z,19.70
2023-05-20T13:50:50.466Z,19.80
2023-05-20T13:53:17.358Z,19.90
2023-05-20T13:55:44.185Z,19.80
2023-05-20T13:58:11.153Z,19.80
2023-05-20T14:00:38.880Z,19.80
2023-05-20T14:03:08.964Z,19.80
2023-05-20T14:05:36.273Z,19.70
2023-05-20T14:08:03.674Z,19.70
2023-05-20T14:10:30.530Z,19.60
2023-05-20T14:13:02.105Z,19.70
2023-05-20T14:15:31.774Z,19.60
2023-05-20T14:17:59.070Z,19.40
2023-05-20T14:20:26.194Z,19.50
2023-05-20T14:22:53.521Z,19.40
2023-05-20T14:25:20.547Z,19.50
2023-05-20T14:27:47.452Z,19.40
2023-05-20T14:30:14.398Z,19.40
2023-05-20T14:32:41.360Z,19.50
2023-05-20T14:35:08.778Z,19.80
2023-05-20T14:37:35.969Z,19.90
2023-05-20T14:40:05.584Z,20.10
2023-05-20T14:42:32.732Z,20.20
2023-05-20T14:44:59.655Z,20.30
2023-05-20T14:47:26.930Z,20.30
2023-05-20T14:49:54.030Z,20.40
2023-05-20T14:52:20.920Z,20.40
2023-05-20T14:54:47.973Z,20.40
2023-05-20T14:57:16.136Z,20.50
2023-05-20T14:59:43.330Z,20.40
2023-05-20T15:02:10.443Z,20.50
2023-05-20T15:04:40.037Z,20.30
2023-05-20T15:07:07.031Z,20.20
2023-05-20T15:09:35.177Z,20.20
2023-05-20T15:12:02.054Z,20.20
2023-05-20T15:14:28.924Z,20.20
2023-05-20T15:16:55.925Z,20.20
2023-05-20T15:19:22.910Z,20.30
2023-05-20T15:21:51.862Z,20.20
2023-05-20T15:24:19.948Z,20.20
2023-05-20T15:26:46.888Z,20.20
2023-05-20T15:29:13.857Z,20.20
2023-05-20T15:31:40.836Z,20.30
2023-05-20T15:34:07.810Z,20.30
2023-05-20T15:36:34.906Z,20.40
2023-05-20T15:39:01.947Z,20.30
2023-05-20T15:41:28.796Z,20.20
2023-05-20T15:43:55.841Z,20.20
2023-05-20T15:46:24.179Z,20.10
2023-05-20T15:48:51.427Z,20.10
2023-05-20T15:51:18.702Z,20.10
2023-05-20T15:53:45.691Z,20.00
2023-05-20T15:56:13.100Z,20.00
2023-05-20T15:58:40.121Z,20.00
2023-05-20T16:01:06.974Z,19.90
2023-05-20T16:03:34.028Z,19.90
2023-05-20T16:06:01.311Z,20.00
2023-05-20T16:08:29.389Z,19.90
2023-05-20T16:10:56.893Z,19.90
2023-05-20T16:13:23.793Z,19.90
2023-05-20T16:15:51.471Z,19.80
2023-05-20T16:18:18.767Z,19.80
2023-05-20T16:20:45.869Z,19.80
2023-05-20T16:23:13.110Z,19.70
2023-05-20T16:25:40.116Z,19.80
2023-05-20T16:28:06.969Z,19.70
2023-05-20T16:30:35.215Z,19.70
2023-05-20T16:33:02.356Z,19.70
2023-05-20T16:35:29.265Z,19.60
2023-05-20T16:37:56.510Z,19.70
2023-05-20T16:40:23.450Z,19.60
2023-05-20T16:42:50.294Z,19.50
2023-05-20T16:45:17.229Z,19.50
2023-05-20T16:47:44.250Z,19.50
2023-05-20T16:50:11.245Z,19.50
2023-05-20T16:52:38.149Z,19.50
2023-05-20T16:55:08.280Z,19.50
2023-05-20T16:57:35.760Z,19.50
2023-05-20T17:00:07.997Z,19.40
2023-05-20T17:02:35.050Z,19.30
2023-05-20T17:05:02.217Z,19.40
2023-05-20T17:07:29.093Z,19.30
2023-05-20T17:09:55.962Z,19.40
2023-05-20T17:12:22.823Z,19.30
2023-05-20T17:14:49.646Z,19.20
2023-05-20T17:17:16.605Z,19.20
2023-05-20T17:19:43.458Z,19.20
2023-05-20T17:22:10.282Z,19.20
2023-05-20T17:24:37.172Z,18.90
2023-05-20T17:27:06.012Z,18.90
2023-05-20T17:29:33.109Z,18.90
2023-05-20T17:31:59.953Z,18.80
2023-05-20T17:34:26.800Z,18.80
2023-05-20T17:36:53.693Z,18.70
2023-05-20T17:39:20.732Z,18.80
2023-05-20T17:41:47.546Z,18.70
2023-05-20T17:44:14.425Z,18.70
2023-05-20T17:46:41.776Z,18.70
2023-05-20T17:49:08.662Z,18.60
2023-05-20T17:51:35.562Z,18.60
2023-05-20T17:54:02.410Z,18.50
2023-05-20T17:56:29.353Z,18.50
2023-05-20T17:58:56.419Z,18.50
2023-05-20T18:01:23.657Z,18.60
2023-05-20T18:03:50.749Z,18.40
2023-05-20T18:06:18.048Z,18.40
2023-05-20T18:08:44.997Z,18.40
2023-05-20T18:11:11.822Z,18.30
2023-05-20T18:13:38.634Z,18.20
2023-05-20T18:16:06.194Z,18.20
2023-05-20T18:18:33.187Z,18.20
2023-05-20T18:21:00.102Z,18.20
2023-05-20T18:23:26.954Z,18.10
2023-05-20T18:25:53.747Z,18.20
2023-05-20T18:28:20.631Z,18.20
2023-05-20T18:30:47.430Z,18.10
2023-05-20T18:33:14.337Z,18.00
2023-05-20T18:35:41.336Z,18.10
2023-05-20T18:38:08.253Z,18.10
2023-05-20T18:40:35.225Z,17.90
2023-05-20T18:43:02.218Z,17.90
2023-05-20T18:45:29.791Z,18.00
2023-05-20T18:47:59.320Z,17.80
2023-05-20T18:50:26.553Z,17.70
2023-05-20T18:52:53.413Z,17.70
2023-05-20T18:55:20.468Z,17.70
2023-05-20T18:57:47.362Z,17.70
2023-05-20T19:00:15.568Z,17.70
2023-05-20T19:02:42.757Z,17.60
2023-05-20T19:05:11.381Z,17.60
2023-05-20T19:07:41.460Z,17.40
2023-05-20T19:10:08.800Z,17.40
2023-05-20T19:12:35.781Z,17.40
2023-05-20T19:15:02.772Z,17.30
2023-05-20T19:17:29.755Z,17.30
2023-05-20T19:19:56.622Z,17.20
2023-05-20T19:22:23.513Z,17.30
2023-05-20T19:24:50.631Z,17.20
2023-05-20T19:27:17.441Z,17.30
2023-05-20T19:29:44.277Z,17.20
2023-05-20T19:32:11.238Z,17.10
2023-05-20T19:34:38.079Z,17.20
2023-05-20T19:37:05.119Z,17.10
2023-05-20T19:39:31.992Z,17.00
2023-05-20T19:41:58.848Z,17.00
2023-05-20T19:44:25.779Z,17.10
2023-05-20T19:46:53.637Z,17.00
2023-05-20T19:49:20.666Z,17.10
2023-05-20T19:51:47.865Z,17.00
2023-05-20T19:54:14.681Z,17.00
2023-05-20T19:56:41.534Z,17.00
2023-05-20T19:59:08.379Z,16.90
2023-05-20T20:01:35.274Z,16.90
2023-05-20T20:04:02.239Z,17.00
2023-05-20T20:06:29.013Z,17.00
2023-05-20T20:08:56.022Z,17.00
2023-05-20T20:11:23.677Z,17.00
2023-05-20T20:13:50.660Z,16.90
2023-05-20T20:16:17.551Z,16.90
2023-05-20T20:18:44.409Z,16.80
2023-05-20T20:21:11.456Z,16.80
2023-05-20T20:23:38.298Z,16.80
2023-05-20T20:26:06.528Z,16.80
2023-05-20T20:28:33.587Z,16.80
2023-05-20T20:31:00.712Z,16.80
2023-05-20T20:33:27.741Z,16.90
2023-05-20T20:35:54.845Z,16.70
2023-05-20T20:38:21.668Z,16.80
2023-05-20T20:40:49.830Z,16.80
2023-05-20T20:43:21.237Z,16.80
2023-05-20T20:45:52.880Z,16.80
2023-05-20T20:48:19.829Z,16.80
2023-05-20T20:50:48.041Z,16.80
2023-05-20T20:53:17.021Z,16.60
2023-05-20T20:55:46.098Z,16.80
2023-05-20T20:58:14.966Z,16.70
2023-05-20T21:00:44.947Z,16.70
2023-05-20T21:03:12.665Z,16.70
2023-05-20T21:05:39.881Z,16.70
2023-05-20T21:08:08.077Z,16.70
2023-05-20T21:10:36.955Z,16.70
2023-05-20T21:13:04.099Z,16.90
2023-05-20T21:15:30.942Z,16.90
2023-05-20T21:17:57.790Z,17.00
2023-05-20T21:20:25.296Z,17.10
2023-05-20T21:22:52.153Z,16.90
2023-05-20T21:25:18.946Z,17.00
2023-05-20T21:27:46.075Z,17.00
2023-05-20T21:30:13.040Z,17.10
2023-05-20T21:32:39.958Z,17.10
2023-05-20T21:35:07.512Z,17.10
2023-05-20T21:37:34.348Z,17.10
2023-05-20T21:40:01.278Z,17.10
2023-05-20T21:42:28.915Z,17.20
2023-05-20T21:44:55.742Z,17.00
2023-05-20T21:47:22.691Z,16.90
2023-05-20T21:49:49.532Z,16.80
2023-05-20T21:52:16.439Z,16.70
2023-05-20T21:54:43.294Z,16.70
2023-05-20T21:57:10.048Z,16.70
2023-05-20T21:59:36.848Z,16.70
2023-05-20T22:02:03.918Z,16.70
2023-05-20T22:04:33.399Z,16.60
2023-05-20T22:07:00.308Z,16.60
2023-05-20T22:09:27.157Z,16.60
2023-05-20T22:11:54.480Z,16.70
2023-05-20T22:14:21.937Z,16.70
2023-05-20T22:16:48.942Z,16.70
2023-05-20T22:19:17.105Z,16.70
2023-05-20T22:24:15.202Z,16.80
2023-05-20T22:26:42.456Z,16.70
2023-05-20T22:29:09.348Z,16.70
2023-05-20T22:31:36.219Z,16.60
2023-05-20T22:34:04.480Z,16.80
2023-05-20T22:36:34.253Z,16.70
2023-05-20T22:39:02.407Z,16.70
2023-05-20T22:41:29.350Z,16.80
2023-05-20T22:43:56.894Z,16.60
2023-05-20T22:46:24.515Z,16.50
2023-05-20T22:48:55.563Z,16.50
2023-05-20T22:51:22.735Z,16.50
2023-05-20T22:53:49.638Z,16.50
2023-05-20T22:56:17.209Z,16.50
2023-05-20T22:58:45.614Z,16.60
2023-05-20T23:01:12.868Z,16.60
2023-05-20T23:03:39.988Z,16.60
2023-05-20T23:06:06.870Z,16.60
2023-05-20T23:08:33.727Z,16.50
2023-05-20T23:11:00.573Z,16.50
2023-05-20T23:13:27.990Z,16.50
2023-05-20T23:15:54.902Z,16.60
2023-05-20T23:18:21.733Z,16.50
2023-05-20T23:20:48.711Z,16.40
2023-05-20T23:23:15.818Z,16.50
2023-05-20T23:25:45.037Z,16.50
2023-05-20T23:28:12.571Z,16.50
2023-05-20T23:30:39.396Z,16.40
2023-05-20T23:33:06.575Z,16.40
2023-05-20T23:35:34.012Z,16.30
2023-05-20T23:38:01.010Z,16.30
2023-05-20T23:40:27.790Z,16.60
2023-05-20T23:42:54.632Z,16.50
2023-05-20T23:45:21.416Z,16.30
2023-05-20T23:47:48.270Z,16.20
2023-05-20T23:50:16.970Z,16.30
2023-05-20T23:52:44.170Z,16.30
2023-05-20T23:55:12.887Z,16.20
2023-05-20T23:57:40.564Z,16.30
